createdAt,value
2023-04-10T00:01:46.694Z,15.65
2023-04-10T00:06:49.142Z,15.57
2023-04-10T00:11:50.734Z,15.25
2023-04-10T00:16:52.437Z,16.45
2023-04-10T00:21:54.185Z,16.08
2023-04-10T00:26:57.469Z,16.45
2023-04-10T00:31:59.202Z,16.13
2023-04-10T00:37:01.210Z,14.75
2023-04-10T00:42:03.174Z,15.85
2023-04-10T00:47:05.463Z,17.20
2023-04-10T00:52:07.763Z,18.55
2023-04-10T00:57:09.461Z,17.13
2023-04-10T01:02:13.202Z,17.98
2023-04-10T01:07:38.934Z,17.92
2023-04-10T01:13:18.655Z,19.10
2023-04-10T01:18:28.806Z,18.80
2023-04-10T01:23:30.784Z,18.10
2023-04-10T01:29:02.135Z,17.13
2023-04-10T01:34:08.466Z,19.17
2023-04-10T01:39:10.410Z,19.25
2023-04-10T01:44:14.771Z,19.58
2023-04-10T01:49:17.285Z,19.20
2023-04-10T01:54:19.170Z,19.50
2023-04-10T01:59:21.512Z,18.92
2023-04-10T02:04:23.288Z,19.25
2023-04-10T02:09:34.035Z,18.58
2023-04-10T02:14:44.210Z,19.10
2023-04-10T02:19:47.178Z,18.48
2023-04-10T02:24:49.406Z,19.63
2023-04-10T02:29:51.551Z,19.17
2023-04-10T02:34:53.656Z,19.27
2023-04-10T02:39:55.505Z,19.17
2023-04-10T02:44:59.508Z,18.95
2023-04-10T02:50:04.256Z,18.80
2023-04-10T02:55:11.429Z,19.85
2023-04-10T03:00:15.075Z,18.65
2023-04-10T03:05:39.468Z,18.02
2023-04-10T03:10:44.542Z,18.90
2023-04-10T03:15:47.017Z,19.90
2023-04-10T03:20:48.924Z,18.65
2023-04-10T03:25:53.867Z,20.75
2023-04-10T03:30:58.730Z,19.45
2023-04-10T03:36:00.629Z,18.50
2023-04-10T03:41:02.390Z,19.50
2023-04-10T03:46:06.659Z,19.15
2023-04-10T03:51:14.423Z,19.10
2023-04-10T03:56:16.735Z,18.80
2023-04-10T04:01:20.549Z,19.48
2023-04-10T04:06:36.362Z,18.73
2023-04-10T04:11:58.827Z,18.38
2023-04-10T04:17:19.022Z,17.98
2023-04-10T04:22:49.598Z,17.23
2023-04-10T04:28:13.627Z,18.38
2023-04-10T04:33:15.316Z,18.17
2023-04-10T04:38:31.454Z,18.02
2023-04-10T04:43:42.507Z,17.75
2023-04-10T04:49:13.277Z,17.53
2023-04-10T04:54:41.032Z,17.60
2023-04-10T05:00:01.113Z,17.30
2023-04-10T05:05:21.268Z,17.85
2023-04-10T05:10:58.201Z,16.52
2023-04-10T05:16:25.581Z,17.25
2023-04-10T05:21:37.531Z,16.33
2023-04-10T05:27:17.480Z,17.05
2023-04-10T05:32:39.476Z,16.75
2023-04-10T05:37:58.936Z,15.85
2023-04-10T05:43:21.872Z,16.40
2023-04-10T05:48:46.576Z,15.77
2023-04-10T05:53:58.169Z,14.50
2023-04-10T05:59:21.907Z,15.07
2023-04-10T06:04:46.571Z,14.30
2023-04-10T06:09:49.035Z,14.95
2023-04-10T06:14:50.866Z,14.48
2023-04-10T06:19:56.824Z,13.98
2023-04-10T06:24:59.051Z,13.25
2023-04-10T06:30:00.997Z,14.10
2023-04-10T06:35:02.954Z,14.68
2023-04-10T06:40:07.073Z,14.40
2023-04-10T06:45:09.495Z,14.52
2023-04-10T06:50:11.134Z,14.43
2023-04-10T06:55:13.006Z,14.82
2023-04-10T07:00:15.001Z,14.05
2023-04-10T07:05:16.690Z,13.98
2023-04-10T07:10:18.292Z,13.63
2023-04-10T07:15:19.917Z,14.13
2023-04-10T07:20:21.548Z,14.80
2023-04-10T07:25:23.368Z,15.10
2023-04-10T07:30:25.038Z,15.32
2023-04-10T07:35:27.070Z,14.60
2023-04-10T07:40:28.745Z,13.93
2023-04-10T07:45:30.572Z,14.32
2023-04-10T07:50:32.256Z,13.57
2023-04-10T07:55:44.975Z,14.05
2023-04-10T08:00:46.560Z,13.07
2023-04-10T08:05:48.164Z,13.65
2023-04-10T08:10:49.831Z,13.88
2023-04-10T08:15:51.403Z,13.23
2023-04-10T08:20:53.025Z,13.18
2023-04-10T08:25:54.661Z,13.10
2023-04-10T08:30:56.341Z,13.07
2023-04-10T08:35:58.009Z,13.25
2023-04-10T08:40:59.745Z,13.77
2023-04-10T08:46:01.845Z,13.65
2023-04-10T08:51:06.105Z,13.40
2023-04-10T08:56:08.244Z,14.38
2023-04-10T09:01:13.516Z,14.18
2023-04-10T09:06:15.252Z,13.80
2023-04-10T09:11:16.876Z,12.43
2023-04-10T09:16:18.640Z,12.38
2023-04-10T09:21:21.429Z,12.05
2023-04-10T09:26:28.374Z,11.70
2023-04-10T09:31:31.863Z,11.68
2023-04-10T09:36:33.582Z,11.15
2023-04-10T09:41:35.365Z,11.23
2023-04-10T09:46:37.093Z,10.35
2023-04-10T09:51:39.529Z,9.38
2023-04-10T09:56:41.406Z,9.27
2023-04-10T10:01:43.789Z,7.57
2023-04-10T10:06:46.107Z,8.65
2023-04-10T10:11:48.677Z,8.57
2023-04-10T10:16:51.342Z,7.93
2023-04-10T10:21:53.554Z,9.70
2023-04-10T10:26:55.821Z,9.85
2023-04-10T10:32:00.329Z,10.05
2023-04-10T10:37:02.719Z,9.35
2023-04-10T10:42:32.975Z,10.05
2023-04-10T10:47:40.586Z,9.13
2023-04-10T10:52:47.057Z,8.50
2023-04-10T10:57:49.835Z,8.77
2023-04-10T11:03:10.627Z,8.77
2023-04-10T11:08:12.537Z,7.85
2023-04-10T11:13:18.285Z,8.20
2023-04-10T11:18:20.994Z,7.30
2023-04-10T11:23:22.575Z,6.97
2023-04-10T11:28:33.370Z,8.05
2023-04-10T11:33:34.992Z,7.82
2023-04-10T11:38:37.311Z,7.90
2023-04-10T11:43:39.232Z,8.50
2023-04-10T11:48:41.059Z,7.97
2023-04-10T11:53:43.016Z,9.85
2023-04-10T11:58:45.025Z,10.48
2023-04-10T12:03:46.755Z,9.35
2023-04-10T12:08:52.769Z,9.23
2023-04-10T12:13:56.529Z,9.05
2023-04-10T12:18:58.388Z,9.45
2023-04-10T12:24:00.204Z,8.27
2023-04-10T12:29:01.877Z,7.53
2023-04-10T12:34:05.423Z,7.60
2023-04-10T12:39:22.187Z,8.70
2023-04-10T12:44:23.759Z,7.47
2023-04-10T12:49:25.494Z,6.93
2023-04-10T12:54:35.162Z,6.82
2023-04-10T12:59:37.426Z,6.55
2023-04-10T13:04:39.158Z,5.18
2023-04-10T13:09:40.848Z,5.90
2023-04-10T13:14:42.445Z,5.80
2023-04-10T13:19:44.043Z,5.53
2023-04-10T13:24:45.980Z,5.95
2023-04-10T13:29:47.688Z,5.72
2023-04-10T13:34:49.366Z,5.82
2023-04-10T13:39:50.954Z,5.55
2023-04-10T13:44:52.640Z,5.10
2023-04-10T13:49:54.279Z,5.53
2023-04-10T13:54:56.076Z,4.38
2023-04-10T13:59:57.746Z,4.95
2023-04-10T14:04:59.395Z,5.05
2023-04-10T14:10:01.364Z,4.53
2023-04-10T14:15:03.062Z,4.65
2023-04-10T14:20:05.344Z,4.47
2023-04-10T14:25:13.102Z,4.32
2023-04-10T14:30:15.795Z,4.30
2023-04-10T14:35:17.535Z,3.85
2023-04-10T14:40:19.151Z,4.13
2023-04-10T14:45:20.800Z,4.95
2023-04-10T14:50:22.481Z,4.10
2023-04-10T14:55:25.116Z,4.43
2023-04-10T15:00:26.928Z,3.88
2023-04-10T15:05:28.707Z,4.70
2023-04-10T15:10:33.298Z,5.22
2023-04-10T15:15:34.917Z,5.30
2023-04-10T15:20:36.636Z,5.00
2023-04-10T15:25:38.317Z,5.10
2023-04-10T15:30:43.466Z,4.72
2023-04-10T15:35:48.478Z,5.55
2023-04-10T15:40:50.089Z,5.93
2023-04-10T15:45:51.784Z,8.48
2023-04-10T15:50:53.506Z,27.60
2023-04-10T15:55:55.128Z,7.70
2023-04-10T16:00:56.809Z,5.45
2023-04-10T16:05:58.619Z,5.30
2023-04-10T16:11:00.417Z,5.47
2023-04-10T16:16:02.758Z,5.60
2023-04-10T16:21:08.353Z,4.95
2023-04-10T16:26:10.089Z,5.30
2023-04-10T16:31:11.745Z,5.18
2023-04-10T16:36:13.406Z,4.75
2023-04-10T16:41:17.485Z,5.60
2023-04-10T16:46:20.549Z,4.80
2023-04-10T16:51:22.321Z,5.88
2023-04-10T16:56:23.933Z,5.30
2023-04-10T17:01:25.938Z,5.28
2023-04-10T17:06:27.803Z,5.20
2023-04-10T17:11:29.466Z,5.35
2023-04-10T17:16:31.185Z,5.22
2023-04-10T17:21:32.798Z,4.65
2023-04-10T17:26:34.461Z,4.40
2023-04-10T17:31:36.113Z,5.07
2023-04-10T17:36:37.816Z,4.38
2023-04-10T17:41:39.841Z,5.03
2023-04-10T17:46:41.505Z,4.53
2023-04-10T17:51:43.089Z,4.85
2023-04-10T17:56:44.727Z,4.97
2023-04-10T18:01:46.551Z,4.90
2023-04-10T18:06:48.279Z,5.15
2023-04-10T18:11:50.752Z,5.03
2023-04-10T18:16:52.545Z,4.57
2023-04-10T18:21:54.241Z,4.88
2023-04-10T18:26:56.600Z,4.90
2023-04-10T18:31:58.257Z,4.95
2023-04-10T18:37:00.141Z,5.40
2023-04-10T18:42:02.667Z,4.95
2023-04-10T18:47:05.266Z,4.90
2023-04-10T18:52:07.594Z,5.70
2023-04-10T18:57:09.307Z,5.60
2023-04-10T19:02:11.059Z,6.25
2023-04-10T19:07:12.767Z,6.20
2023-04-10T19:12:14.438Z,6.65
2023-04-10T19:17:16.229Z,6.90
2023-04-10T19:22:17.909Z,7.32
2023-04-10T19:27:19.539Z,6.63
2023-04-10T19:32:21.233Z,7.90
2023-04-10T19:37:22.838Z,7.85
2023-04-10T19:42:24.438Z,7.13
2023-04-10T19:47:26.206Z,7.97
2023-04-10T19:52:27.809Z,7.85
2023-04-10T19:57:29.431Z,8.23
2023-04-10T20:02:31.186Z,7.68
2023-04-10T20:07:33.326Z,8.05
2023-04-10T20:12:35.142Z,8.18
2023-04-10T20:17:38.447Z,7.93
2023-04-10T20:22:40.435Z,7.78
2023-04-10T20:27:42.068Z,8.23
2023-04-10T20:32:43.717Z,7.78
2023-04-10T20:37:45.297Z,8.05
2023-04-10T20:42:46.940Z,7.85
2023-04-10T20:47:48.599Z,8.07
2023-04-10T20:52:50.379Z,7.60
2023-04-10T20:57:53.179Z,8.07
2023-04-10T21:02:54.983Z,7.60
2023-04-10T21:07:56.928Z,7.90
2023-04-10T21:12:58.554Z,8.35
2023-04-10T21:18:00.368Z,7.70
2023-04-10T21:23:02.432Z,7.35
2023-04-10T21:28:04.093Z,7.45
2023-04-10T21:33:05.807Z,7.13
2023-04-10T21:38:07.488Z,7.53
2023-04-10T21:43:09.059Z,7.30
2023-04-10T21:48:10.700Z,6.53
2023-04-10T21:53:12.434Z,6.22
2023-04-10T21:58:14.053Z,6.07
2023-04-10T22:03:16.292Z,6.13
2023-04-10T22:08:20.020Z,6.10
2023-04-10T22:13:30.348Z,6.38
2023-04-10T22:18:32.825Z,5.82
2023-04-10T22:23:34.403Z,5.90
2023-04-10T22:28:36.005Z,6.03
2023-04-10T22:33:37.962Z,5.55
2023-04-10T22:38:39.602Z,6.20
2023-04-10T22:43:41.205Z,6.25
2023-04-10T22:48:43.432Z,6.00
2023-04-10T22:53:46.084Z,6.55
2023-04-10T22:58:47.676Z,6.57
2023-04-10T23:03:53.584Z,6.18
2023-04-10T23:08:55.674Z,6.10
2023-04-10T23:13:57.679Z,6.10
2023-04-10T23:18:59.328Z,7.43
2023-04-10T23:24:00.935Z,6.40
2023-04-10T23:29:02.633Z,6.43
2023-04-10T23:34:04.214Z,6.32
2023-04-10T23:39:05.796Z,6.10
2023-04-10T23:44:08.559Z,5.95
2023-04-10T23:49:10.160Z,5.80
2023-04-10T23:54:12.474Z,5.53
2023-04-10T23:59:16.891Z,5.45
